createdAt,value
2022-11-08T00:03:23.891Z,100994.00
2022-11-08T00:09:45.366Z,100992.00
2022-11-08T00:15:47.445Z,100989.00
2022-11-08T00:21:49.766Z,100994.00
2022-11-08T00:27:51.870Z,101000.00
2022-11-08T00:33:54.004Z,100995.00
2022-11-08T00:39:56.373Z,100990.00
2022-11-08T00:45:58.571Z,100981.00
2022-11-08T00:52:00.888Z,100986.00
2022-11-08T00:58:02.929Z,100975.00
2022-11-08T01:04:05.553Z,100979.00
2022-11-08T01:10:08.267Z,100979.00
2022-11-08T01:16:16.853Z,100987.00
2022-11-08T01:22:18.997Z,100980.00
2022-11-08T01:28:21.591Z,100984.00
2022-11-08T01:34:23.869Z,100978.00
2022-11-08T01:40:27.456Z,100976.00
2022-11-08T01:46:38.742Z,100966.00
2022-11-08T01:52:48.158Z,100976.00
2022-11-08T01:58:54.601Z,100974.00
2022-11-08T02:04:57.918Z,100984.00
2022-11-08T02:11:00.189Z,100968.00
2022-11-08T02:17:02.347Z,100972.00
2022-11-08T02:23:19.681Z,100978.00
2022-11-08T02:29:25.380Z,100973.00
2022-11-08T02:35:28.174Z,100980.00
2022-11-08T02:41:30.189Z,100982.00
2022-11-08T02:47:32.250Z,100977.00
2022-11-08T02:53:34.703Z,100979.00
2022-11-08T02:59:37.280Z,100984.00
2022-11-08T03:05:39.610Z,100979.00
2022-11-08T03:11:42.068Z,100978.00
2022-11-08T03:17:44.839Z,100981.00
2022-11-08T03:23:46.956Z,100983.00
2022-11-08T03:29:49.803Z,100990.00
2022-11-08T03:35:52.145Z,100980.00
2022-11-08T03:41:54.719Z,100984.00
2022-11-08T03:47:57.012Z,100985.00
2022-11-08T03:53:59.190Z,100977.00
2022-11-08T04:00:01.662Z,100964.00
2022-11-08T04:06:04.292Z,100970.00
2022-11-08T04:12:25.678Z,100970.00
2022-11-08T04:18:46.784Z,100967.00
2022-11-08T04:24:48.886Z,100965.00
2022-11-08T04:31:03.531Z,100953.00
2022-11-08T04:37:05.854Z,100958.00
2022-11-08T04:43:08.089Z,100958.00
2022-11-08T04:49:10.240Z,100969.00
2022-11-08T04:55:12.392Z,100963.00
2022-11-08T05:01:17.314Z,100962.00
2022-11-08T05:07:20.702Z,100972.00
2022-11-08T05:13:22.796Z,100976.00
2022-11-08T05:19:43.599Z,100971.00
2022-11-08T05:25:46.846Z,100976.00
2022-11-08T05:31:49.172Z,100972.00
2022-11-08T05:37:51.362Z,100978.00
2022-11-08T05:43:55.265Z,100990.00
2022-11-08T05:49:57.566Z,100993.00
2022-11-08T05:56:02.577Z,100987.00
2022-11-08T06:02:05.021Z,100998.00
2022-11-08T06:08:07.201Z,101004.00
2022-11-08T06:14:09.592Z,101003.00
2022-11-08T06:20:14.656Z,101003.00
2022-11-08T06:26:17.360Z,101000.00
2022-11-08T06:32:19.810Z,101001.00
2022-11-08T06:38:22.174Z,101002.00
2022-11-08T06:44:24.555Z,101000.00
2022-11-08T06:50:27.229Z,100998.00
2022-11-08T06:56:30.563Z,101002.00
2022-11-08T07:02:33.109Z,101007.00
2022-11-08T07:08:35.979Z,101000.00
2022-11-08T07:14:38.107Z,100999.00
2022-11-08T07:20:41.205Z,101004.00
2022-11-08T07:26:43.467Z,101001.00
2022-11-08T07:32:45.676Z,101007.00
2022-11-08T07:38:47.989Z,101022.00
2022-11-08T07:44:50.213Z,101003.00
2022-11-08T07:50:52.640Z,101019.00
2022-11-08T07:56:54.818Z,101013.00
2022-11-08T08:03:01.519Z,100979.00
2022-11-08T08:09:04.299Z,100973.00
2022-11-08T08:15:06.618Z,100982.00
2022-11-08T08:21:08.944Z,101031.00
2022-11-08T08:27:11.757Z,101019.00
2022-11-08T08:33:33.212Z,101015.00
2022-11-08T08:39:36.395Z,101007.00
2022-11-08T08:45:39.147Z,101044.00
2022-11-08T08:51:41.112Z,101036.00
2022-11-08T08:57:47.851Z,101040.00
2022-11-08T09:03:49.951Z,101024.00
2022-11-08T09:09:52.051Z,101036.00
2022-11-08T09:15:55.221Z,101041.00
2022-11-08T09:21:57.304Z,101044.00
2022-11-08T09:27:59.401Z,101033.00
2022-11-08T09:34:01.469Z,101038.00
2022-11-08T09:40:04.079Z,101025.00
2022-11-08T09:46:11.863Z,101023.00
2022-11-08T09:52:24.230Z,101023.00
2022-11-08T09:58:38.237Z,101027.00
2022-11-08T10:04:40.277Z,101018.00
2022-11-08T10:10:51.321Z,101020.00
2022-11-08T10:17:34.966Z,101013.00
2022-11-08T10:23:48.675Z,101004.00
2022-11-08T10:29:55.308Z,101016.00
2022-11-08T10:36:02.791Z,101018.00
2022-11-08T10:42:17.579Z,101019.00
2022-11-08T10:48:20.241Z,101020.00
2022-11-08T10:54:46.122Z,101010.00
2022-11-08T11:01:01.191Z,101025.00
2022-11-08T11:07:24.139Z,101018.00
2022-11-08T11:19:56.016Z,101012.00
2022-11-08T11:25:58.817Z,101017.00
2022-11-08T11:32:23.638Z,101011.00
2022-11-08T11:38:47.487Z,101009.00
2022-11-08T11:45:10.799Z,101008.00
2022-11-08T11:51:13.008Z,101008.00
2022-11-08T11:57:50.834Z,101013.00
2022-11-08T12:04:16.292Z,101007.00
2022-11-08T12:10:33.064Z,101007.00
2022-11-08T12:23:52.203Z,101007.00
2022-11-08T12:30:09.708Z,101010.00
2022-11-08T12:36:33.606Z,101013.00
2022-11-08T12:43:17.424Z,101006.00
2022-11-08T12:49:45.123Z,101006.00
2022-11-08T12:55:48.778Z,101004.00
2022-11-08T13:01:53.574Z,101011.00
2022-11-08T13:08:13.544Z,101005.00
2022-11-08T13:14:18.064Z,101011.00
2022-11-08T13:33:15.391Z,101020.00
2022-11-08T13:39:30.054Z,101022.00
2022-11-08T13:45:34.108Z,101026.00
2022-11-08T13:51:40.315Z,101028.00
2022-11-08T13:58:01.486Z,101023.00
2022-11-08T14:04:24.646Z,101016.00
2022-11-08T14:10:58.769Z,101018.00
2022-11-08T14:17:29.085Z,101026.00
2022-11-08T14:23:32.613Z,101024.00
2022-11-08T14:29:34.756Z,101026.00
2022-11-08T14:35:37.000Z,101027.00
2022-11-08T14:41:45.149Z,101024.00
2022-11-08T14:47:52.993Z,101023.00
2022-11-08T14:53:56.724Z,101027.00
2022-11-08T15:00:00.898Z,101039.00
2022-11-08T15:06:13.863Z,101045.00
2022-11-08T15:12:20.022Z,101045.00
2022-11-08T15:18:38.515Z,101050.00
2022-11-08T15:24:41.246Z,101053.00
2022-11-08T15:30:44.386Z,101063.00
2022-11-08T15:36:47.816Z,101063.00
2022-11-08T15:42:52.523Z,101070.00
2022-11-08T15:49:00.961Z,101065.00
2022-11-08T15:55:03.050Z,101072.00
2022-11-08T16:01:06.033Z,101069.00
2022-11-08T16:07:08.908Z,101074.00
2022-11-08T16:13:17.786Z,101088.00
2022-11-08T16:19:25.321Z,101099.00
2022-11-08T16:25:29.939Z,101096.00
2022-11-08T16:31:32.158Z,101100.00
2022-11-08T16:37:34.226Z,101110.00
2022-11-08T16:43:36.753Z,101108.00
2022-11-08T16:49:39.058Z,101121.00
2022-11-08T16:55:41.367Z,101118.00
2022-11-08T17:01:43.987Z,101125.00
2022-11-08T17:07:46.325Z,101130.00
2022-11-08T17:13:49.840Z,101138.00
2022-11-08T17:19:52.266Z,101134.00
2022-11-08T17:25:54.646Z,101124.00
2022-11-08T17:31:56.848Z,101123.00
2022-11-08T17:37:58.966Z,101116.00
2022-11-08T17:44:00.917Z,101120.00
2022-11-08T17:50:03.717Z,101113.00
2022-11-08T17:56:06.005Z,101125.00
2022-11-08T18:02:09.607Z,101114.00
2022-11-08T18:08:12.041Z,101119.00
2022-11-08T18:14:15.500Z,101126.00
2022-11-08T18:20:17.797Z,101115.00
2022-11-08T18:26:20.098Z,101118.00
2022-11-08T18:32:22.193Z,101108.00
2022-11-08T18:38:25.150Z,101106.00
2022-11-08T18:44:27.578Z,101112.00
2022-11-08T18:50:29.813Z,101127.00
2022-11-08T18:56:32.096Z,101123.00
2022-11-08T19:02:34.416Z,101128.00
2022-11-08T19:08:37.050Z,101135.00
2022-11-08T19:14:39.266Z,101129.00
2022-11-08T19:20:41.539Z,101124.00
2022-11-08T19:26:43.661Z,101127.00
2022-11-08T19:32:47.415Z,101130.00
2022-11-08T19:38:50.228Z,101128.00
2022-11-08T19:44:52.422Z,101139.00
2022-11-08T19:50:55.297Z,101149.00
2022-11-08T19:57:05.736Z,101146.00
2022-11-08T20:03:08.742Z,101150.00
2022-11-08T20:09:11.759Z,101153.00
2022-11-08T20:15:13.861Z,101162.00
2022-11-08T20:21:17.781Z,101162.00
2022-11-08T20:27:20.045Z,101165.00
2022-11-08T20:33:22.131Z,101175.00
2022-11-08T20:39:24.273Z,101180.00
2022-11-08T20:45:29.433Z,101174.00
2022-11-08T20:51:32.297Z,101188.00
2022-11-08T20:57:34.434Z,101189.00
2022-11-08T21:03:37.322Z,101201.00
2022-11-08T21:09:49.949Z,101197.00
2022-11-08T21:15:53.006Z,101189.00
2022-11-08T21:22:14.999Z,101192.00
2022-11-08T21:28:17.715Z,101195.00
2022-11-08T21:34:20.047Z,101194.00
2022-11-08T21:40:22.911Z,101192.00
2022-11-08T21:46:26.513Z,101193.00
2022-11-08T21:52:28.997Z,101198.00
2022-11-08T21:58:31.514Z,101189.00
2022-11-08T22:04:33.750Z,101192.00
2022-11-08T22:10:36.025Z,101195.00
2022-11-08T22:16:38.364Z,101192.00
2022-11-08T22:22:41.033Z,101195.00
2022-11-08T22:28:43.641Z,101199.00
2022-11-08T22:34:46.276Z,101205.00
2022-11-08T22:40:48.745Z,101209.00
2022-11-08T22:46:51.148Z,101190.00
2022-11-08T22:52:53.370Z,101203.00
2022-11-08T22:58:55.677Z,101201.00
2022-11-08T23:04:58.142Z,101194.00
2022-11-08T23:11:19.453Z,101197.00
2022-11-08T23:17:21.777Z,101198.00
2022-11-08T23:23:42.221Z,101195.00
2022-11-08T23:30:03.073Z,101192.00
2022-11-08T23:36:17.318Z,101195.00
2022-11-08T23:42:38.179Z,101184.00
2022-11-08T23:48:41.006Z,101180.00
2022-11-08T23:54:43.267Z,101183.00
